createdAt,value
2022-12-25T00:01:25.309Z,22.85
2022-12-25T00:03:52.356Z,15.40
2022-12-25T00:06:19.192Z,11.63
2022-12-25T00:08:45.606Z,17.27
2022-12-25T00:11:13.050Z,25.10
2022-12-25T00:13:39.545Z,13.10
2022-12-25T00:16:07.077Z,15.45
2022-12-25T00:18:33.491Z,18.70
2022-12-25T00:21:01.319Z,11.50
2022-12-25T00:23:27.957Z,7.38
2022-12-25T00:25:54.642Z,8.98
2022-12-25T00:28:21.279Z,19.08
2022-12-25T00:30:47.709Z,13.13
2022-12-25T00:33:14.460Z,15.60
2022-12-25T00:35:40.911Z,18.20
2022-12-25T00:38:07.211Z,9.93
2022-12-25T00:40:33.678Z,17.23
2022-12-25T00:43:00.096Z,20.13
2022-12-25T00:45:26.794Z,16.00
2022-12-25T00:47:53.500Z,18.98
2022-12-25T00:50:19.757Z,11.35
2022-12-25T00:52:46.055Z,13.00
2022-12-25T00:55:12.310Z,12.05
2022-12-25T00:57:38.627Z,17.88
2022-12-25T01:00:05.417Z,17.33
2022-12-25T01:02:31.845Z,19.45
2022-12-25T01:04:58.205Z,14.82
2022-12-25T01:07:25.207Z,15.95
2022-12-25T01:10:10.041Z,18.27
2022-12-25T01:12:37.632Z,25.55
2022-12-25T01:15:04.993Z,13.57
2022-12-25T01:17:31.243Z,20.80
2022-12-25T01:19:57.530Z,13.57
2022-12-25T01:22:23.903Z,10.68
2022-12-25T01:24:50.223Z,9.25
2022-12-25T01:27:16.776Z,14.20
2022-12-25T01:29:43.195Z,11.93
2022-12-25T01:32:09.540Z,17.20
2022-12-25T01:34:35.987Z,11.82
2022-12-25T01:37:02.370Z,13.20
2022-12-25T01:39:28.793Z,12.20
2022-12-25T01:41:55.070Z,11.98
2022-12-25T01:44:36.565Z,12.30
2022-12-25T01:47:04.141Z,22.17
2022-12-25T01:49:31.778Z,13.00
2022-12-25T01:52:04.205Z,10.63
2022-12-25T01:54:33.251Z,18.42
2022-12-25T01:57:01.067Z,14.32
2022-12-25T01:59:27.824Z,9.02
2022-12-25T02:01:54.394Z,13.02
2022-12-25T02:04:38.676Z,14.98
2022-12-25T02:07:09.798Z,9.52
2022-12-25T02:12:02.548Z,6.22
2022-12-25T02:14:31.457Z,8.07
2022-12-25T02:17:03.675Z,9.57
2022-12-25T02:19:48.716Z,13.30
2022-12-25T02:22:15.121Z,13.15
2022-12-25T02:25:00.246Z,8.10
2022-12-25T02:27:45.275Z,14.52
2022-12-25T02:30:11.749Z,17.15
2022-12-25T02:32:43.959Z,17.35
2022-12-25T02:35:13.633Z,8.80
2022-12-25T02:37:43.769Z,8.70
2022-12-25T02:40:22.623Z,13.87
2022-12-25T02:43:10.604Z,11.77
2022-12-25T02:45:58.597Z,10.40
2022-12-25T02:48:45.218Z,14.30
2022-12-25T02:51:33.528Z,13.48
2022-12-25T02:54:19.987Z,12.32
2022-12-25T02:57:06.268Z,6.22
2022-12-25T02:59:52.055Z,25.02
2022-12-25T03:02:36.942Z,11.55
2022-12-25T03:05:24.130Z,9.73
2022-12-25T03:07:51.080Z,16.02
2022-12-25T03:10:37.144Z,12.65
2022-12-25T03:13:09.651Z,6.93
2022-12-25T03:15:54.719Z,14.15
2022-12-25T03:18:24.307Z,18.83
2022-12-25T03:21:12.490Z,10.10
2022-12-25T03:23:58.775Z,8.07
2022-12-25T03:26:45.049Z,9.25
2022-12-25T03:29:31.991Z,21.95
2022-12-25T03:32:04.273Z,12.30
2022-12-25T03:34:54.426Z,10.95
2022-12-25T03:37:44.052Z,9.27
2022-12-25T03:40:49.091Z,10.57
2022-12-25T03:43:47.457Z,12.50
2022-12-25T03:46:34.829Z,18.55
2022-12-25T03:49:29.151Z,11.98
2022-12-25T03:52:14.900Z,17.35
2022-12-25T03:55:01.827Z,12.32
2022-12-25T03:57:46.580Z,15.95
2022-12-25T04:00:31.718Z,26.95
2022-12-25T04:03:16.691Z,5.72
2022-12-25T04:06:01.450Z,14.88
2022-12-25T04:08:46.204Z,11.95
2022-12-25T04:11:30.831Z,10.95
2022-12-25T04:14:15.763Z,8.57
2022-12-25T04:17:00.445Z,5.28
2022-12-25T04:19:45.208Z,11.75
2022-12-25T04:22:29.976Z,12.35
2022-12-25T04:25:14.927Z,6.88
2022-12-25T04:27:59.606Z,8.68
2022-12-25T04:30:44.441Z,10.23
2022-12-25T04:33:29.311Z,12.60
2022-12-25T04:36:11.684Z,7.55
2022-12-25T04:38:38.948Z,8.25
2022-12-25T04:41:05.652Z,6.47
2022-12-25T04:43:32.083Z,9.43
2022-12-25T04:45:59.230Z,3.65
2022-12-25T04:48:26.352Z,7.40
2022-12-25T04:50:52.820Z,6.47
2022-12-25T04:53:19.520Z,5.47
2022-12-25T04:55:45.808Z,11.20
2022-12-25T04:58:12.174Z,4.97
2022-12-25T05:00:38.643Z,18.48
2022-12-25T05:03:05.036Z,3.80
2022-12-25T05:05:31.475Z,6.55
2022-12-25T05:07:58.048Z,11.68
2022-12-25T05:10:24.302Z,4.70
2022-12-25T05:12:50.860Z,14.30
2022-12-25T05:15:17.380Z,5.05
2022-12-25T05:17:43.651Z,17.27
2022-12-25T05:20:10.006Z,5.43
2022-12-25T05:22:36.220Z,9.00
2022-12-25T05:25:02.518Z,7.28
2022-12-25T05:27:28.738Z,6.10
2022-12-25T05:29:55.194Z,9.95
2022-12-25T05:32:21.469Z,6.15
2022-12-25T05:34:47.725Z,9.48
2022-12-25T05:37:14.042Z,5.75
2022-12-25T05:39:40.340Z,5.40
2022-12-25T05:42:06.659Z,10.50
2022-12-25T05:44:32.973Z,10.05
2022-12-25T05:46:59.292Z,7.45
2022-12-25T05:49:25.618Z,7.05
2022-12-25T05:51:52.324Z,5.28
2022-12-25T05:54:18.737Z,11.45
2022-12-25T05:56:45.016Z,4.55
2022-12-25T05:59:11.337Z,9.23
2022-12-25T06:01:37.640Z,4.40
2022-12-25T06:04:10.188Z,7.97
2022-12-25T06:06:38.559Z,6.78
2022-12-25T06:09:04.840Z,5.15
2022-12-25T06:11:31.067Z,3.63
2022-12-25T06:13:57.403Z,6.97
2022-12-25T06:16:23.680Z,5.88
2022-12-25T06:18:52.127Z,11.73
2022-12-25T06:21:18.432Z,7.05
2022-12-25T06:23:45.278Z,5.60
2022-12-25T06:26:13.150Z,9.85
2022-12-25T06:28:40.019Z,7.82
2022-12-25T06:31:10.317Z,10.32
2022-12-25T06:33:36.727Z,2.88
2022-12-25T06:36:10.472Z,3.97
2022-12-25T06:38:36.830Z,5.65
2022-12-25T06:41:11.074Z,3.63
2022-12-25T06:43:38.033Z,9.68
2022-12-25T06:46:05.787Z,13.77
2022-12-25T06:48:33.005Z,5.88
2022-12-25T06:50:59.442Z,4.90
2022-12-25T06:53:27.022Z,10.63
2022-12-25T06:55:53.338Z,3.85
2022-12-25T06:58:19.739Z,8.80
2022-12-25T07:00:46.148Z,2.42
2022-12-25T07:03:16.286Z,9.88
2022-12-25T07:05:44.765Z,8.57
2022-12-25T07:08:11.039Z,3.90
2022-12-25T07:10:37.346Z,3.33
2022-12-25T07:13:03.632Z,4.35
2022-12-25T07:15:29.983Z,5.50
2022-12-25T07:17:56.313Z,4.43
2022-12-25T07:20:22.629Z,4.70
2022-12-25T07:22:50.047Z,4.53
2022-12-25T07:25:16.457Z,7.70
2022-12-25T07:27:42.772Z,8.10
2022-12-25T07:30:09.351Z,4.40
2022-12-25T07:32:35.584Z,6.38
2022-12-25T07:35:01.875Z,7.57
2022-12-25T07:37:28.123Z,10.73
2022-12-25T07:39:54.460Z,4.43
2022-12-25T07:42:25.111Z,6.63
2022-12-25T07:44:51.779Z,3.45
2022-12-25T07:47:18.081Z,5.03
2022-12-25T07:49:44.397Z,3.60
2022-12-25T07:52:10.695Z,11.98
2022-12-25T07:54:37.122Z,6.57
2022-12-25T07:57:03.498Z,2.50
2022-12-25T07:59:29.778Z,3.50
2022-12-25T08:01:56.428Z,14.57
2022-12-25T08:04:22.955Z,5.38
2022-12-25T08:06:49.323Z,6.95
2022-12-25T08:09:15.611Z,4.30
2022-12-25T08:11:45.260Z,3.40
2022-12-25T08:14:11.627Z,3.42
2022-12-25T08:16:42.128Z,2.88
2022-12-25T08:19:09.124Z,3.60
2022-12-25T08:21:35.626Z,3.05
2022-12-25T08:24:03.159Z,12.10
2022-12-25T08:26:29.666Z,2.78
2022-12-25T08:28:56.138Z,11.50
2022-12-25T08:31:26.730Z,4.88
2022-12-25T08:33:54.547Z,5.30
2022-12-25T08:36:21.271Z,7.22
2022-12-25T08:38:47.962Z,2.90
2022-12-25T08:41:14.753Z,7.13
2022-12-25T08:43:41.336Z,6.78
2022-12-25T08:46:08.085Z,3.97
2022-12-25T08:48:34.399Z,4.13
2022-12-25T08:51:01.494Z,5.07
2022-12-25T08:53:27.756Z,3.38
2022-12-25T08:56:01.233Z,5.68
2022-12-25T08:58:27.993Z,2.42
2022-12-25T09:00:54.438Z,3.97
2022-12-25T09:03:21.302Z,7.78
2022-12-25T09:05:47.805Z,8.70
2022-12-25T09:08:14.137Z,13.95
2022-12-25T09:10:40.856Z,8.25
2022-12-25T09:13:07.142Z,2.55
2022-12-25T09:15:33.482Z,4.05
2022-12-25T09:17:59.789Z,3.45
2022-12-25T09:20:26.145Z,4.25
2022-12-25T09:22:52.415Z,3.03
2022-12-25T09:25:18.799Z,5.57
2022-12-25T09:27:45.168Z,9.95
2022-12-25T09:30:11.518Z,6.30
2022-12-25T09:32:40.211Z,5.43
2022-12-25T09:35:07.287Z,7.47
2022-12-25T09:37:33.809Z,10.95
2022-12-25T09:40:00.090Z,5.47
2022-12-25T09:42:31.425Z,3.88
2022-12-25T09:45:00.538Z,3.88
2022-12-25T09:47:29.448Z,5.95
2022-12-25T09:50:00.372Z,4.68
2022-12-25T09:54:56.545Z,3.10
2022-12-25T09:57:24.305Z,5.97
2022-12-25T09:59:51.376Z,4.60
2022-12-25T10:02:29.357Z,5.28
2022-12-25T10:05:08.480Z,8.45
2022-12-25T10:07:45.135Z,3.92
2022-12-25T10:10:19.869Z,3.63
2022-12-25T10:13:04.578Z,6.63
2022-12-25T10:16:00.293Z,8.75
2022-12-25T10:18:49.539Z,17.42
2022-12-25T10:21:18.129Z,10.15
2022-12-25T10:23:47.912Z,4.60
2022-12-25T10:26:15.647Z,4.45
2022-12-25T10:28:43.876Z,2.90
2022-12-25T10:31:15.984Z,4.00
2022-12-25T10:33:42.371Z,3.88
2022-12-25T10:36:09.602Z,8.23
2022-12-25T10:38:36.574Z,5.40
2022-12-25T10:41:16.826Z,8.57
2022-12-25T10:43:45.396Z,3.53
2022-12-25T10:46:12.505Z,6.68
2022-12-25T10:48:49.794Z,5.07
2022-12-25T10:51:26.541Z,8.85
2022-12-25T10:53:52.778Z,5.25
2022-12-25T10:56:19.089Z,3.15
2022-12-25T10:58:45.633Z,3.60
2022-12-25T11:01:12.508Z,9.23
2022-12-25T11:03:39.969Z,9.50
2022-12-25T11:06:23.290Z,5.70
2022-12-25T11:09:01.122Z,4.13
2022-12-25T11:11:28.401Z,5.60
2022-12-25T11:13:56.877Z,2.40
2022-12-25T11:16:28.065Z,7.28
2022-12-25T11:18:54.730Z,5.00
2022-12-25T11:21:31.085Z,5.05
2022-12-25T11:23:58.991Z,5.38
2022-12-25T11:26:25.896Z,4.13
2022-12-25T11:28:53.491Z,3.20
2022-12-25T11:31:21.324Z,9.25
2022-12-25T11:33:54.013Z,7.25
2022-12-25T11:36:39.098Z,7.22
2022-12-25T11:39:14.145Z,98.00
2022-12-25T11:41:41.486Z,55.63
2022-12-25T11:44:14.692Z,50.95
2022-12-25T11:46:45.889Z,18.85
2022-12-25T11:49:14.427Z,34.22
2022-12-25T11:51:41.957Z,15.98
2022-12-25T11:54:11.308Z,13.68
2022-12-25T11:56:37.683Z,24.67
2022-12-25T11:59:09.838Z,5.78
2022-12-25T12:01:50.085Z,4.75
2022-12-25T12:04:29.606Z,5.20
2022-12-25T12:07:07.380Z,7.43
2022-12-25T12:09:40.703Z,3.42
2022-12-25T12:12:11.381Z,13.02
2022-12-25T12:15:00.221Z,10.75
2022-12-25T12:17:26.698Z,5.82
2022-12-25T12:19:52.984Z,12.25
2022-12-25T12:22:23.707Z,7.10
2022-12-25T12:24:59.771Z,7.80
2022-12-25T12:27:35.472Z,3.55
2022-12-25T12:30:04.559Z,6.05
2022-12-25T12:32:36.126Z,8.82
2022-12-25T12:35:15.834Z,6.88
2022-12-25T12:37:42.533Z,3.05
2022-12-25T12:40:21.608Z,4.90
2022-12-25T12:42:50.449Z,8.15
2022-12-25T12:45:18.956Z,3.83
2022-12-25T12:47:47.674Z,3.10
2022-12-25T12:50:32.258Z,10.20
2022-12-25T12:52:59.199Z,9.07
2022-12-25T12:55:35.367Z,7.35
2022-12-25T12:58:03.498Z,8.45
2022-12-25T13:00:36.385Z,4.65
2022-12-25T13:03:14.027Z,6.70
2022-12-25T13:05:43.448Z,5.97
2022-12-25T13:08:28.346Z,12.05
2022-12-25T13:11:19.608Z,7.85
2022-12-25T13:13:47.003Z,4.93
2022-12-25T13:16:17.556Z,10.23
2022-12-25T13:18:43.916Z,7.40
2022-12-25T13:21:16.333Z,5.30
2022-12-25T13:23:42.603Z,8.10
2022-12-25T13:26:13.943Z,6.05
2022-12-25T13:28:40.292Z,10.00
2022-12-25T13:31:11.759Z,6.63
2022-12-25T13:33:38.491Z,7.82
2022-12-25T13:36:05.718Z,12.98
2022-12-25T13:38:32.125Z,5.95
2022-12-25T13:41:17.507Z,9.40
2022-12-25T13:43:44.596Z,9.15
2022-12-25T13:46:14.725Z,8.18
2022-12-25T13:48:41.784Z,11.00
2022-12-25T13:51:15.839Z,7.95
2022-12-25T13:53:42.777Z,5.35
2022-12-25T13:56:12.578Z,10.85
2022-12-25T13:58:39.477Z,6.25
2022-12-25T14:01:06.419Z,7.65
2022-12-25T14:03:32.801Z,9.35
2022-12-25T14:06:00.224Z,8.13
2022-12-25T14:08:28.065Z,8.82
2022-12-25T14:10:55.063Z,7.50
2022-12-25T14:13:23.374Z,8.73
2022-12-25T14:15:50.490Z,9.60
2022-12-25T14:18:18.370Z,11.95
2022-12-25T14:21:13.776Z,10.85
2022-12-25T14:23:45.057Z,8.30
2022-12-25T14:26:30.565Z,8.07
2022-12-25T14:29:12.208Z,7.43
2022-12-25T14:31:43.210Z,8.07
2022-12-25T14:34:21.093Z,9.63
2022-12-25T14:36:47.796Z,9.93
2022-12-25T14:39:32.363Z,9.70
2022-12-25T14:41:58.679Z,11.50
2022-12-25T14:44:25.408Z,11.45
2022-12-25T14:47:02.444Z,8.52
2022-12-25T14:49:30.980Z,8.45
2022-12-25T14:51:57.664Z,8.80
2022-12-25T14:54:24.595Z,9.40
2022-12-25T14:56:51.742Z,10.18
2022-12-25T14:59:19.553Z,7.63
2022-12-25T15:01:50.713Z,11.75
2022-12-25T15:04:17.536Z,10.20
2022-12-25T15:07:08.338Z,8.75
2022-12-25T15:09:35.880Z,9.20
2022-12-25T15:12:02.400Z,9.98
2022-12-25T15:14:30.034Z,9.00
2022-12-25T15:16:57.901Z,7.15
2022-12-25T15:19:36.924Z,5.40
2022-12-25T15:22:03.966Z,8.57
2022-12-25T15:24:30.258Z,9.57
2022-12-25T15:27:00.078Z,5.43
2022-12-25T15:29:52.178Z,9.23
2022-12-25T15:32:17.554Z,5.93
2022-12-25T15:34:46.097Z,16.98
2022-12-25T15:37:13.271Z,7.60
2022-12-25T15:39:39.552Z,7.65
2022-12-25T15:42:15.800Z,6.03
2022-12-25T15:44:42.524Z,7.15
2022-12-25T15:47:09.681Z,7.35
2022-12-25T15:49:35.984Z,10.13
2022-12-25T15:52:03.636Z,8.35
2022-12-25T15:54:31.591Z,9.25
2022-12-25T15:57:00.184Z,9.23
2022-12-25T15:59:26.473Z,5.40
2022-12-25T16:01:54.280Z,5.35
2022-12-25T16:04:21.355Z,8.02
2022-12-25T16:06:48.055Z,9.90
2022-12-25T16:09:15.396Z,5.22
2022-12-25T16:11:42.388Z,5.55
2022-12-25T16:14:09.048Z,6.35
2022-12-25T16:16:35.402Z,8.43
2022-12-25T16:19:02.307Z,4.88
2022-12-25T16:21:32.043Z,13.50
2022-12-25T16:23:58.420Z,13.50
2022-12-25T16:26:24.709Z,18.38
2022-12-25T16:28:51.048Z,18.00
2022-12-25T16:31:17.351Z,13.80
2022-12-25T16:33:43.751Z,19.13
2022-12-25T16:36:10.001Z,13.60
2022-12-25T16:38:36.764Z,12.65
2022-12-25T16:41:03.138Z,6.93
2022-12-25T16:43:29.435Z,12.68
2022-12-25T16:45:57.826Z,11.30
2022-12-25T16:48:24.127Z,6.85
2022-12-25T16:50:50.399Z,14.73
2022-12-25T16:53:16.703Z,10.48
2022-12-25T16:55:43.004Z,10.45
2022-12-25T16:58:09.435Z,11.35
2022-12-25T17:00:35.854Z,12.75
2022-12-25T17:03:02.490Z,10.00
2022-12-25T17:05:29.021Z,59.55
2022-12-25T17:07:55.421Z,45.95
2022-12-25T17:10:21.738Z,27.45
2022-12-25T17:12:48.098Z,38.92
2022-12-25T17:15:14.551Z,23.45
2022-12-25T17:17:41.598Z,14.05
2022-12-25T17:20:08.233Z,10.25
2022-12-25T17:22:34.610Z,8.75
2022-12-25T17:25:00.943Z,7.50
2022-12-25T17:27:27.554Z,8.10
2022-12-25T17:29:53.817Z,7.68
2022-12-25T17:32:20.171Z,10.23
2022-12-25T17:34:46.804Z,19.85
2022-12-25T17:37:13.152Z,10.48
2022-12-25T17:39:39.523Z,18.30
2022-12-25T17:42:05.773Z,13.45
2022-12-25T17:44:32.064Z,13.13
2022-12-25T17:46:58.408Z,34.22
2022-12-25T17:49:25.018Z,14.48
2022-12-25T17:51:51.493Z,51.40
2022-12-25T17:54:17.813Z,19.10
2022-12-25T17:56:44.203Z,43.15
2022-12-25T17:59:17.985Z,46.78
2022-12-25T18:01:44.765Z,19.52
2022-12-25T18:04:11.252Z,39.10
2022-12-25T18:06:37.559Z,9.18
2022-12-25T18:09:06.087Z,21.80
2022-12-25T18:11:33.130Z,16.27
2022-12-25T18:14:03.450Z,28.25
2022-12-25T18:16:31.028Z,29.58
2022-12-25T18:18:59.471Z,21.65
2022-12-25T18:21:26.576Z,28.40
2022-12-25T18:23:52.916Z,26.70
2022-12-25T18:26:19.750Z,10.95
2022-12-25T18:28:47.149Z,8.63
2022-12-25T18:31:15.016Z,10.93
2022-12-25T18:33:41.727Z,9.68
2022-12-25T18:36:08.134Z,9.30
2022-12-25T18:38:35.459Z,8.27
2022-12-25T18:41:04.021Z,11.65
2022-12-25T18:43:52.222Z,10.65
2022-12-25T18:46:17.770Z,9.98
2022-12-25T18:48:44.373Z,9.77
2022-12-25T18:51:12.224Z,12.10
2022-12-25T18:53:38.530Z,11.02
2022-12-25T18:56:07.541Z,30.98
2022-12-25T18:58:34.531Z,32.22
2022-12-25T19:01:00.888Z,38.33
2022-12-25T19:03:27.306Z,47.90
2022-12-25T19:05:53.711Z,60.30
2022-12-25T19:08:20.076Z,69.78
2022-12-25T19:10:46.298Z,67.10
2022-12-25T19:13:12.619Z,55.42
2022-12-25T19:15:42.585Z,52.75
2022-12-25T19:18:08.852Z,46.40
2022-12-25T19:20:37.698Z,37.08
2022-12-25T19:23:03.957Z,34.20
2022-12-25T19:25:30.181Z,40.95
2022-12-25T19:27:56.568Z,38.00
2022-12-25T19:30:22.837Z,74.35
2022-12-25T19:32:49.186Z,66.63
2022-12-25T19:35:15.438Z,59.80
2022-12-25T19:37:41.736Z,48.38
2022-12-25T19:40:08.460Z,62.35
2022-12-25T19:42:34.820Z,24.05
2022-12-25T19:45:02.961Z,31.48
2022-12-25T19:47:29.195Z,44.20
2022-12-25T19:49:59.571Z,33.42
2022-12-25T19:52:28.530Z,25.08
2022-12-25T19:54:54.812Z,18.13
2022-12-25T19:57:21.091Z,28.02
2022-12-25T19:59:48.780Z,21.92
2022-12-25T20:02:15.120Z,18.90
2022-12-25T20:04:41.458Z,17.88
2022-12-25T20:07:07.844Z,28.67
2022-12-25T20:09:34.162Z,19.85
2022-12-25T20:12:00.416Z,17.33
2022-12-25T20:14:26.723Z,15.85
2022-12-25T20:16:53.088Z,14.30
2022-12-25T20:19:19.435Z,15.48
2022-12-25T20:21:45.744Z,15.52
2022-12-25T20:24:12.274Z,25.25
2022-12-25T20:26:39.197Z,17.92
2022-12-25T20:29:05.681Z,15.02
2022-12-25T20:31:32.950Z,17.50
2022-12-25T20:34:00.414Z,19.00
2022-12-25T20:36:31.185Z,20.20
2022-12-25T20:39:02.637Z,16.70
2022-12-25T20:41:29.860Z,16.00
2022-12-25T20:43:56.914Z,14.25
2022-12-25T20:46:23.815Z,17.80
2022-12-25T20:48:50.416Z,17.13
2022-12-25T20:51:17.702Z,17.92
2022-12-25T20:53:44.375Z,18.67
2022-12-25T20:56:11.607Z,114.50
2022-12-25T20:58:37.965Z,15.57
2022-12-25T21:01:08.218Z,13.52
2022-12-25T21:03:35.257Z,14.45
2022-12-25T21:06:02.159Z,16.60
2022-12-25T21:08:28.895Z,11.40
2022-12-25T21:11:00.407Z,11.02
2022-12-25T21:13:34.415Z,12.55
2022-12-25T21:16:00.833Z,10.55
2022-12-25T21:18:27.933Z,10.75
2022-12-25T21:20:56.085Z,11.15
2022-12-25T21:23:22.746Z,11.05
2022-12-25T21:25:49.435Z,11.23
2022-12-25T21:28:16.183Z,11.85
2022-12-25T21:30:42.509Z,11.05
2022-12-25T21:33:30.130Z,12.93
2022-12-25T21:35:56.639Z,12.70
2022-12-25T21:38:22.906Z,10.68
2022-12-25T21:40:49.153Z,11.63
2022-12-25T21:43:15.489Z,12.80
2022-12-25T21:45:41.874Z,9.35
2022-12-25T21:48:08.398Z,17.08
2022-12-25T21:50:53.342Z,12.63
2022-12-25T21:53:20.010Z,17.95
2022-12-25T21:56:02.524Z,12.43
2022-12-25T21:58:29.263Z,18.05
2022-12-25T22:00:55.680Z,18.83
2022-12-25T22:03:23.369Z,18.85
2022-12-25T22:06:08.138Z,14.70
2022-12-25T22:08:34.500Z,15.07
2022-12-25T22:11:04.103Z,19.83
2022-12-25T22:13:49.014Z,13.25
2022-12-25T22:16:33.932Z,14.85
2022-12-25T22:19:18.686Z,12.18
2022-12-25T22:21:45.042Z,12.18
2022-12-25T22:24:11.280Z,11.52
2022-12-25T22:26:38.627Z,14.68
2022-12-25T22:29:04.961Z,15.10
2022-12-25T22:31:31.294Z,8.57
2022-12-25T22:33:57.684Z,14.32
2022-12-25T22:36:23.946Z,9.63
2022-12-25T22:38:50.260Z,10.90
2022-12-25T22:41:16.533Z,11.13
2022-12-25T22:44:16.005Z,15.63
2022-12-25T22:46:29.222Z,12.23
2022-12-25T22:48:55.598Z,10.32
2022-12-25T22:51:21.995Z,11.80
2022-12-25T22:53:49.933Z,18.50
2022-12-25T22:56:16.344Z,13.07
2022-12-25T22:58:42.680Z,13.98
2022-12-25T23:01:09.246Z,8.60
2022-12-25T23:03:35.762Z,11.05
2022-12-25T23:06:02.448Z,10.50
2022-12-25T23:08:28.784Z,6.28
2022-12-25T23:10:55.078Z,13.85
2022-12-25T23:13:39.995Z,9.93
2022-12-25T23:16:06.413Z,8.73
2022-12-25T23:18:51.542Z,9.10
2022-12-25T23:21:36.872Z,9.90
2022-12-25T23:24:21.445Z,10.27
2022-12-25T23:26:47.711Z,7.63
2022-12-25T23:29:32.551Z,10.80
2022-12-25T23:31:59.045Z,7.95
2022-12-25T23:34:25.336Z,15.75
2022-12-25T23:36:51.680Z,10.13
2022-12-25T23:39:18.006Z,11.88
2022-12-25T23:41:44.449Z,7.55
2022-12-25T23:44:11.536Z,14.48
2022-12-25T23:46:38.543Z,10.23
2022-12-25T23:49:05.355Z,11.43
2022-12-25T23:51:31.663Z,11.70
2022-12-25T23:53:58.091Z,9.88
2022-12-25T23:56:24.310Z,11.43
2022-12-25T23:58:51.925Z,12.32
